Felix-Klein-Gymnasium, Gttingen, 150m NN
Donnes mto: Actuelle Sonntag, 26.05.2019 09:30
Date Horaire Temp. E. Hum. E. P.atmo. Pluie Vent Direction Direction Ensoleilleme P. de rose Temp au vent Rafales
26.05.2019 09:30 15,7 C 68 % 1012,8 hPa 0,0 mm 5,4 km/h (1 Bft) SO 223 15 min 9,8 C 15,7 C 22,5 km/h (4 Bft)
26.05.2019 09:15 15,0 C 68 % 1013,0 hPa 0,0 mm 10,3 km/h (2 Bft) NO 315 15 min 9,1 C 15,0 C 25,7 km/h (4 Bft)
26.05.2019 09:00 14,6 C 74 % 1012,9 hPa 0,0 mm 5,4 km/h (1 Bft) NO 305 15 min 10,0 C 14,6 C 20,9 km/h (4 Bft)
26.05.2019 08:45 13,6 C 78 % 1012,9 hPa 0,0 mm 4,2 km/h (1 Bft) O 263 15 min 9,8 C 13,6 C 12,9 km/h (3 Bft)
26.05.2019 08:30 12,7 C 81 % 1012,9 hPa 0,0 mm 5,7 km/h (1 Bft) O-SO 249 15 min 9,5 C 12,7 C 14,5 km/h (3 Bft)
26.05.2019 08:15 12,0 C 83 % 1013,1 hPa 0,0 mm 6,5 km/h (2 Bft) O-SO 238 15 min 9,2 C 12,0 C 14,5 km/h (3 Bft)
26.05.2019 08:00 11,2 C 84 % 1013,1 hPa 0,0 mm 5,7 km/h (1 Bft) O-SO 242 15 min 8,6 C 11,2 C 16,1 km/h (3 Bft)
26.05.2019 07:45 10,6 C 86 % 1013,2 hPa 0,0 mm 3,4 km/h (1 Bft) O 260 15 min 8,4 C 10,6 C 11,3 km/h (2 Bft)
26.05.2019 07:30 9,9 C 88 % 1013,2 hPa 0,0 mm 4,0 km/h (1 Bft) O-SO 250 15 min 8,0 C 9,9 C 9,7 km/h (2 Bft)
26.05.2019 07:15 9,3 C 90 % 1013,2 hPa 0,0 mm 4,5 km/h (1 Bft) O 260 15 min 7,7 C 9,3 C 11,3 km/h (2 Bft)
26.05.2019 07:00 8,8 C 91 % 1013,3 hPa 0,0 mm 3,3 km/h (1 Bft) O 261 0 min 7,4 C 8,8 C 9,7 km/h (2 Bft)
26.05.2019 06:45 8,3 C 92 % 1013,4 hPa 0,0 mm 1,9 km/h (1 Bft) O 263 0 min 7,1 C 8,3 C 8,0 km/h (2 Bft)
26.05.2019 06:30 7,8 C 93 % 1013,4 hPa 0,0 mm 1,8 km/h (1 Bft) O-NO 286 0 min 6,7 C 7,8 C 8,0 km/h (2 Bft)
26.05.2019 06:15 7,5 C 92 % 1013,4 hPa 0,0 mm 0,1 km/h (0 Bft) O-NO 289 0 min 6,3 C 7,5 C 3,2 km/h (1 Bft)
26.05.2019 06:00 7,4 C 92 % 1013,5 hPa 0,0 mm 0,0 km/h (0 Bft) O-NO 289 0 min 6,2 C 7,4 C 0,0 km/h (0 Bft)
26.05.2019 05:45 7,3 C 92 % 1013,5 hPa 0,0 mm 0,1 km/h (0 Bft) O-NO 289 0 min 6,1 C 7,3 C 3,2 km/h (1 Bft)
26.05.2019 05:30 7,2 C 92 % 1013,6 hPa 0,0 mm 0,0 km/h (0 Bft) O-NO 288 0 min 6,0 C 7,2 C 0,0 km/h (0 Bft)
26.05.2019 05:15 7,3 C 92 % 1013,6 hPa 0,0 mm 0,0 km/h (0 Bft) O-NO 289 0 min 6,1 C 7,3 C 1,6 km/h (1 Bft)
26.05.2019 05:00 7,3 C 92 % 1013,6 hPa 0,0 mm 0,0 km/h (0 Bft) O-NO 289 0 min 6,1 C 7,3 C 3,2 km/h (1 Bft)
26.05.2019 04:45 7,5 C 91 % 1013,7 hPa 0,0 mm 0,2 km/h (0 Bft) O-NO 289 0 min 6,1 C 7,5 C 6,4 km/h (2 Bft)
26.05.2019 04:30 7,7 C 92 % 1013,7 hPa 0,0 mm 0,5 km/h (0 Bft) O-NO 285 0 min 6,5 C 7,7 C 8,0 km/h (2 Bft)
26.05.2019 04:15 7,6 C 92 % 1013,7 hPa 0,0 mm 0,1 km/h (0 Bft) O-NO 293 0 min 6,4 C 7,6 C 3,2 km/h (1 Bft)
26.05.2019 04:00 7,5 C 92 % 1013,8 hPa 0,0 mm 0,1 km/h (0 Bft) O-NO 293 0 min 6,3 C 7,5 C 3,2 km/h (1 Bft)
26.05.2019 03:45 7,3 C 91 % 1013,8 hPa 0,0 mm 0,0 km/h (0 Bft) O-NO 293 0 min 5,9 C 7,3 C 1,6 km/h (1 Bft)
26.05.2019 03:30 7,4 C 91 % 1013,9 hPa 0,0 mm 0,0 km/h (0 Bft) O-NO 293 0 min 6,0 C 7,4 C 0,0 km/h (0 Bft)
26.05.2019 03:15 7,6 C 91 % 1014,0 hPa 0,0 mm 0,0 km/h (0 Bft) O-NO 293 0 min 6,2 C 7,6 C 0,0 km/h (0 Bft)
26.05.2019 03:00 7,7 C 90 % 1013,9 hPa 0,0 mm 0,0 km/h (0 Bft) O-NO 293 0 min 6,2 C 7,7 C 0,0 km/h (0 Bft)
26.05.2019 02:45 7,9 C 90 % 1014,1 hPa 0,0 mm 0,0 km/h (0 Bft) O-NO 293 0 min 6,4 C 7,9 C 0,0 km/h (0 Bft)
26.05.2019 02:30 7,9 C 90 % 1014,1 hPa 0,0 mm 0,0 km/h (0 Bft) O-NO 293 0 min 6,4 C 7,9 C 0,0 km/h (0 Bft)
26.05.2019 02:15 8,1 C 89 % 1014,1 hPa 0,0 mm 0,0 km/h (0 Bft) O-NO 293 0 min 6,4 C 8,1 C 0,0 km/h (0 Bft)
26.05.2019 02:00 8,3 C 89 % 1014,2 hPa 0,0 mm 0,1 km/h (0 Bft) O-NO 293 0 min 6,6 C 8,3 C 3,2 km/h (1 Bft)
26.05.2019 01:45 8,6 C 89 % 1014,2 hPa 0,0 mm 0,0 km/h (0 Bft) O-NO 293 0 min 6,9 C 8,6 C 0,0 km/h (0 Bft)
26.05.2019 01:30 8,6 C 89 % 1014,2 hPa 0,0 mm 0,0 km/h (0 Bft) O-NO 293 0 min 6,9 C 8,6 C 1,6 km/h (1 Bft)
26.05.2019 01:15 8,8 C 88 % 1014,4 hPa 0,0 mm 0,0 km/h (0 Bft) O-NO 293 0 min 6,9 C 8,8 C 0,0 km/h (0 Bft)
26.05.2019 01:00 9,2 C 87 % 1014,4 hPa 0,0 mm 0,0 km/h (0 Bft) O-NO 293 0 min 7,2 C 9,2 C 1,6 km/h (1 Bft)
26.05.2019 00:45 9,3 C 88 % 1014,5 hPa 0,0 mm 0,0 km/h (0 Bft) O-NO 293 0 min 7,4 C 9,3 C 3,2 km/h (1 Bft)
26.05.2019 00:30 9,6 C 86 % 1014,5 hPa 0,0 mm 0,1 km/h (0 Bft) O-NO 293 0 min 7,4 C 9,6 C 4,8 km/h (1 Bft)
26.05.2019 00:15 9,9 C 85 % 1014,7 hPa 0,0 mm 0,1 km/h (0 Bft) O-NO 298 0 min 7,5 C 9,9 C 4,8 km/h (1 Bft)
26.05.2019 00:00 10,1 C 84 % 1014,8 hPa 0,0 mm 0,0 km/h (0 Bft) O-NO 282 0 min 7,5 C 10,1 C 1,6 km/h (1 Bft)
25.05.2019 22:45 13,2 C 71 % 1014,7 hPa 0,0 mm 0,0 km/h (0 Bft) E-SE 114 0 min 8,1 C 13,2 C 0,0 km/h (0 Bft)
25.05.2019 22:30 13,6 C 70 % 1014,7 hPa 0,0 mm 0,0 km/h (0 Bft) E-SE 114 0 min 8,2 C 13,6 C 0,0 km/h (0 Bft)
25.05.2019 22:15 13,9 C 68 % 1014,7 hPa 0,0 mm 0,1 km/h (0 Bft) E-SE 111 0 min 8,1 C 13,9 C 4,8 km/h (1 Bft)
25.05.2019 22:00 14,1 C 66 % 1014,6 hPa 0,0 mm 1,0 km/h (0 Bft) E 81 0 min 7,8 C 14,1 C 11,3 km/h (2 Bft)
25.05.2019 21:45 14,2 C 66 % 1014,6 hPa 0,0 mm 0,5 km/h (0 Bft) E 86 0 min 7,9 C 14,2 C 8,0 km/h (2 Bft)
25.05.2019 21:30 14,3 C 66 % 1014,4 hPa 0,0 mm 0,8 km/h (0 Bft) E-SE 119 0 min 8,0 C 14,3 C 8,0 km/h (2 Bft)
25.05.2019 21:15 14,4 C 66 % 1014,3 hPa 0,0 mm 2,4 km/h (1 Bft) E-NE 73 0 min 8,1 C 14,4 C 14,5 km/h (3 Bft)
25.05.2019 21:00 14,6 C 66 % 1014,1 hPa 0,0 mm 4,7 km/h (1 Bft) SE 127 0 min 8,3 C 14,6 C 16,1 km/h (3 Bft)
25.05.2019 20:45 14,7 C 66 % 1013,9 hPa 0,0 mm 10,5 km/h (2 Bft) E-NE 63 0 min 8,4 C 14,7 C 19,3 km/h (3 Bft)
25.05.2019 20:30 15,0 C 65 % 1013,9 hPa 0,0 mm 4,9 km/h (1 Bft) NE 45 0 min 8,5 C 15,0 C 16,1 km/h (3 Bft)
25.05.2019 20:15 15,2 C 63 % 1013,8 hPa 0,0 mm 4,8 km/h (1 Bft) E 83 0 min 8,2 C 15,2 C 16,1 km/h (3 Bft)
25.05.2019 20:00 15,4 C 63 % 1013,8 hPa 0,0 mm 3,5 km/h (1 Bft) S-SE 152 0 min 8,4 C 15,4 C 12,9 km/h (3 Bft)
25.05.2019 19:45 15,5 C 62 % 1013,8 hPa 0,0 mm 8,7 km/h (2 Bft) E-NE 71 0 min 8,3 C 15,5 C 20,9 km/h (4 Bft)
25.05.2019 19:30 15,7 C 61 % 1013,7 hPa 0,0 mm 5,2 km/h (1 Bft) E-SE 109 0 min 8,2 C 15,7 C 17,7 km/h (3 Bft)
25.05.2019 19:15 15,9 C 62 % 1013,7 hPa 0,0 mm 4,2 km/h (1 Bft) S-SE 150 0 min 8,6 C 15,9 C 17,7 km/h (3 Bft)
25.05.2019 19:00 16,0 C 62 % 1013,6 hPa 0,0 mm 7,6 km/h (2 Bft) E 81 0 min 8,7 C 16,0 C 16,1 km/h (3 Bft)
25.05.2019 18:45 16,2 C 60 % 1013,5 hPa 0,0 mm 4,2 km/h (1 Bft) S-SE 168 0 min 8,4 C 16,2 C 16,1 km/h (3 Bft)
25.05.2019 18:30 16,4 C 61 % 1013,6 hPa 0,0 mm 6,7 km/h (2 Bft) E-NE 61 15 min 8,9 C 16,4 C 16,1 km/h (3 Bft)
25.05.2019 18:15 16,8 C 60 % 1013,6 hPa 0,0 mm 3,0 km/h (1 Bft) E-SE 114 0 min 9,0 C 16,8 C 16,1 km/h (3 Bft)
25.05.2019 18:00 16,2 C 61 % 1013,6 hPa 0,0 mm 6,4 km/h (2 Bft) E-SE 117 15 min 8,7 C 16,2 C 20,9 km/h (4 Bft)
25.05.2019 17:45 16,7 C 60 % 1013,6 hPa 0,0 mm 2,5 km/h (1 Bft) E-NE 78 15 min 8,9 C 16,7 C 16,1 km/h (3 Bft)
25.05.2019 17:30 16,2 C 61 % 1013,6 hPa 0,0 mm 5,7 km/h (1 Bft) SE 137 15 min 8,7 C 16,2 C 22,5 km/h (4 Bft)
25.05.2019 17:15 16,1 C 61 % 1013,7 hPa 0,0 mm 3,6 km/h (1 Bft) SE 143 15 min 8,6 C 16,1 C 17,7 km/h (3 Bft)
25.05.2019 17:00 16,3 C 60 % 1013,8 hPa 0,0 mm 4,9 km/h (1 Bft) E-NE 72 15 min 8,5 C 16,3 C 17,7 km/h (3 Bft)
25.05.2019 16:45 16,1 C 61 % 1013,7 hPa 0,0 mm 10,4 km/h (2 Bft) E-SE 105 0 min 8,6 C 16,1 C 22,5 km/h (4 Bft)
25.05.2019 16:30 16,5 C 59 % 1013,8 hPa 0,0 mm 3,8 km/h (1 Bft) E-NE 65 15 min 8,5 C 16,5 C 17,7 km/h (3 Bft)
25.05.2019 16:15 16,3 C 60 % 1014,0 hPa 0,0 mm 5,7 km/h (1 Bft) E-NE 59 15 min 8,5 C 16,3 C 16,1 km/h (3 Bft)
25.05.2019 16:00 15,4 C 63 % 1014,0 hPa 0,0 mm 6,3 km/h (2 Bft) NO 312 0 min 8,4 C 15,4 C 19,3 km/h (3 Bft)
25.05.2019 15:45 14,8 C 64 % 1014,1 hPa 0,0 mm 11,3 km/h (2 Bft) E-SE 114 0 min 8,1 C 14,8 C 24,1 km/h (4 Bft)
25.05.2019 15:30 14,8 C 63 % 1014,1 hPa 0,0 mm 6,0 km/h (2 Bft) E-NE 72 0 min 7,8 C 14,8 C 20,9 km/h (4 Bft)
25.05.2019 15:15 15,2 C 62 % 1014,1 hPa 0,0 mm 8,1 km/h (2 Bft) NE 42 15 min 8,0 C 15,2 C 22,5 km/h (4 Bft)
25.05.2019 15:00 14,7 C 63 % 1014,2 hPa 0,0 mm 9,1 km/h (2 Bft) E-SE 116 15 min 7,7 C 14,7 C 20,9 km/h (4 Bft)
25.05.2019 14:45 14,1 C 69 % 1014,4 hPa 0,0 mm 6,1 km/h (2 Bft) N-NE 29 15 min 8,5 C 14,1 C 20,9 km/h (4 Bft)
25.05.2019 14:30 14,0 C 69 % 1014,4 hPa 0,0 mm 8,4 km/h (2 Bft) E-NE 59 0 min 8,4 C 14,0 C 22,5 km/h (4 Bft)
25.05.2019 14:15 14,0 C 68 % 1014,6 hPa 0,0 mm 9,5 km/h (2 Bft) NE 53 0 min 8,2 C 14,0 C 19,3 km/h (3 Bft)
25.05.2019 14:00 13,7 C 70 % 1014,6 hPa 0,0 mm 5,8 km/h (2 Bft) NE 46 15 min 8,3 C 13,7 C 16,1 km/h (3 Bft)
25.05.2019 13:45 13,2 C 72 % 1014,7 hPa 0,0 mm 5,6 km/h (1 Bft) N-NE 15 0 min 8,3 C 13,2 C 17,7 km/h (3 Bft)
25.05.2019 13:30 13,2 C 72 % 1014,7 hPa 0,0 mm 9,4 km/h (2 Bft) N-NE 30 0 min 8,3 C 13,2 C 20,9 km/h (4 Bft)
25.05.2019 13:15 13,5 C 72 % 1014,7 hPa 0,0 mm 9,2 km/h (2 Bft) NE 44 15 min 8,6 C 13,5 C 25,7 km/h (4 Bft)
25.05.2019 13:00 13,4 C 72 % 1014,7 hPa 0,0 mm 7,4 km/h (2 Bft) N 5 15 min 8,5 C 13,4 C 19,3 km/h (3 Bft)
25.05.2019 12:45 13,1 C 72 % 1014,7 hPa 0,0 mm 10,7 km/h (2 Bft) N-NE 15 0 min 8,2 C 13,1 C 24,1 km/h (4 Bft)
25.05.2019 12:30 13,2 C 71 % 1014,7 hPa 0,0 mm 8,6 km/h (2 Bft) N-NO 346 0 min 8,1 C 13,2 C 22,5 km/h (4 Bft)
25.05.2019 10:45 12,3 C 74 % 1014,4 hPa 0,0 mm 6,5 km/h (2 Bft) N 10 0 min 7,8 C 12,3 C 19,3 km/h (3 Bft)
25.05.2019 10:30 12,4 C 73 % 1014,4 hPa 0,0 mm 3,0 km/h (1 Bft) N-NE 28 0 min 7,7 C 12,4 C 16,1 km/h (3 Bft)
25.05.2019 10:15 12,4 C 72 % 1014,3 hPa 0,0 mm 3,4 km/h (1 Bft) NE 38 0 min 7,5 C 12,4 C 12,9 km/h (3 Bft)
25.05.2019 10:00 11,6 C 77 % 1014,3 hPa 0,0 mm 7,0 km/h (2 Bft) E-NE 71 0 min 7,7 C 11,6 C 20,9 km/h (4 Bft)
_ Min-Heure 05:30 16:30 09:30 - 22:30 - - - 03:45 05:30 22:30
Minimum _ 7,2 C 59 % 1012,8 hPa - 0,0 km/h (0 Bft) - - - 5,9 C 7,2 C 0,0 km/h (0 Bft)
_ Max-Heure 18:15 06:30 00:00 10:00 15:45 - - 13:00 09:00 18:15 13:15
Maximum _ 16,8 C 93 % 1014,8 hPa 0,0 mm 11,3 km/h
E-SE (2 Bft)
- - 15 min 10,0 C 16,8 C 25,7 km/h
NE (4 Bft)
Moyenne _ 12,1 C 76 % 1014,0 hPa #0,0 mm 4,1 km/h (1 Bft) E-NE - #2:30 h 7,8 C 12,1 C 12,9 km/h (3 Bft)